Knin, Croatia

10:04 AM CEST on July 25, 2014 (GMT +0200)
Golubic-Knin (ICROATIA12) Elev 1358 ft | 44.11 °N, 16.21 °E | Change Station

Current weather conditions updated 3 seconds ago

Clear
Clear
75.0 °F
Feels Like 77 °F
N
0.0
Wind Variable Wind from ENE
Gusts 0.0 mph

Today is forecast to be Cooler than yesterday. Thunderstorms.

Today
High -- | Low -- °F
--% Chance of Precip.
Yesterday
High -- | Low -- °F
Precip. -- in
5:35 AM 8:27 PM
Waning Crescent, 2% visible
Pressure 29.92 in
Visibility -9999.0 miles
Clouds
Heat Index 77 °F
Dew Point 64 °F
Humidity 69%
Rainfall 0.00 in
Snow Depth Not available.
UV Not available.
Pollen Not available.
Air Quality Not available.
Flu Activity Not available.
METAR LDSP 250800Z VRB03KT CAVOK 25/20 Q1013 NOSIG

More Conditions Fewer Conditions

Pressure 29.92 in
Visibility -9999.0 miles
Clouds
Heat Index 77 °F
Dew Point 64 °F
Humidity 69%
Rainfall 0.00 in
Snow Depth Not available.
UV Not available.
Pollen Not available.
Air Quality Not available.
Flu Activity Not available.
METAR LDSP 250800Z VRB03KT CAVOK 25/20 Q1013 NOSIG

More Conditions Fewer Conditions

10-Day Weather Forecast

Almanac

Astronomy

Jul. 25, 2014 Rise Set
Actual Time 5:35 AM CEST 8:27 PM CEST
Civil Twilight 5:01 AM CEST 9:01 PM CEST
Nautical Twilight 4:18 AM CEST 9:43 PM CEST
Astronomical Twilight 3:28 AM CEST 10:33 PM CEST
Moon 4:20 AM CEST 7:10 PM CEST
Length of Visible Light 15h 59m
Length of Day
14h 51m
Tomorrow will be 2m 4s shorter.
Waning Crescent, 2% of the Moon is Illuminated
Today
Waning Crescent
Jul 26
New
Aug 3
First Quarter
Aug 10
Full
Aug 17
Last Quarter

Yesterday's Extremes

Country Highs Country Lows

Community

WunderPhotos

Upload Photos

1,737,273 photos uploaded!

Nearby

Snow Depth

Not available.

Earthquake Activity

City Distance Mag. Time & Date
No recent earthquake activity has been reported nearby.
Minimum magnitude displayed is 2.5.

Coastal Water Temperatures

Place Temperature
No Stations Reporting

Nearby Weather Stations

Station Location Temp. Heat Index Dew Point Humidity Wind Precip. Elev Updated Type
Golubic-Knin, Golubic 75.0 °F 77 °F 64 °F 69% ENE  at  0.0 mph 0.00 in / hr 1358 ft 10:04 AM CEST Rapid Fire
Drnis, Drnis 79.7 °F 82 °F 67 °F 66% ESE  at  2.3 mph 0.00 in / hr 971 ft 10:04 AM CEST Rapid Fire
Sibensko kninska zupanija, Sibenik-Bilice-vrulje 79.2 °F 82 °F 68 °F 68% South  at  0.0 mph 0.00 in / hr 7 ft 10:04 AM CEST Rapid Fire
Sibenik-Dubrava, Dubrava Kod Å ibenika 79.7 °F 82 °F 65 °F 61% WNW  at  2.3 mph 0.00 in / hr 328 ft 10:04 AM CEST Rapid Fire

Show More Stations Show Fewer Stations